Time;durP1;ratioP1;P1;durP2;ratioP2;P2;SDS_P1;SDS_P2;PMS_P1;PMS_P2;Temp;Humidity;BMP_temperature;BMP_pressure;BME280_temperature;BME280_humidity;BME280_pressure;Samples;Min_cycle;Max_cycle;Signal;HPM_P1;HPM_P2
2022/11/01 03:53:31;;;;;;;24.80;3.90;;;12.30;99.90;;;;;;5008494;28;1274906;-71
2022/11/01 03:55:56;;;;;;;18.27;3.50;;;12.50;99.90;;;;;;5058138;28;20506;-71
2022/11/01 03:58:22;;;;;;;22.77;3.50;;;12.50;99.90;;;;;;5041317;28;20482;-71
2022/11/01 04:00:49;;;;;;;24.05;4.18;;;12.50;99.90;;;;;;5057154;28;20041;-70
2022/11/01 04:03:15;;;;;;;18.30;3.17;;;12.50;99.90;;;;;;5058280;28;20063;-71
2022/11/01 04:05:41;;;;;;;22.67;4.25;;;12.60;99.90;;;;;;5062136;28;20048;-70
2022/11/01 04:08:09;;;;;;;23.40;3.97;;;12.60;99.90;;;;;;5058267;28;20031;-71
2022/11/01 04:10:35;;;;;;;25.08;3.97;;;12.50;99.90;;;;;;5058169;28;20135;-71
2022/11/01 04:13:01;;;;;;;23.95;3.92;;;12.60;99.90;;;;;;5057835;28;20078;-70
2022/11/01 04:21:12;;;;;;;26.85;4.20;;;12.80;99.90;;;;;;5061245;28;20074;-71
2022/11/01 04:23:38;;;;;;;24.88;3.80;;;12.90;99.90;;;;;;5060209;28;20036;-72
2022/11/01 04:26:06;;;;;;;27.40;4.32;;;13.00;99.90;;;;;;5044449;28;20032;-70
2022/11/01 04:28:31;;;;;;;26.75;4.70;;;13.00;99.90;;;;;;5058786;28;20056;-71
2022/11/01 04:30:57;;;;;;;32.08;5.28;;;13.00;99.90;;;;;;5045408;28;20123;-71
2022/11/01 04:33:22;;;;;;;23.88;4.18;;;13.10;99.90;;;;;;5058389;28;20040;-71
2022/11/01 04:35:48;;;;;;;31.30;5.13;;;13.20;99.90;;;;;;5063275;28;20044;-71
2022/11/01 04:38:15;;;;;;;29.40;4.22;;;13.20;99.90;;;;;;5062091;28;20131;-70
2022/11/01 04:40:41;;;;;;;25.80;4.47;;;13.30;99.90;;;;;;5037498;28;20028;-70
2022/11/01 04:43:07;;;;;;;22.63;4.63;;;13.30;99.90;;;;;;5064791;28;20040;-70
2022/11/01 04:45:33;;;;;;;27.92;4.63;;;13.40;99.90;;;;;;5068471;28;20032;-71
2022/11/01 04:48:03;;;;;;;26.67;4.60;;;13.50;99.90;;;;;;5068089;28;20060;-70
2022/11/01 04:50:29;;;;;;;29.35;4.30;;;13.50;99.90;;;;;;5067140;28;20029;-69
2022/11/01 04:52:54;;;;;;;25.83;3.83;;;13.50;99.90;;;;;;5059531;28;20036;-70
2022/11/01 04:55:20;;;;;;;27.27;5.10;;;13.50;99.90;;;;;;5063754;28;20060;-69
2022/11/01 04:57:45;;;;;;;23.63;3.88;;;13.60;99.90;;;;;;5066006;28;20524;-70
2022/11/01 05:00:12;;;;;;;30.02;4.68;;;13.60;99.90;;;;;;5036273;28;20061;-70
2022/11/01 05:02:39;;;;;;;23.65;3.75;;;13.60;99.90;;;;;;5059172;28;20077;-69
2022/11/01 05:05:06;;;;;;;22.83;3.65;;;13.70;99.90;;;;;;5049388;28;20059;-70
2022/11/01 05:07:32;;;;;;;25.55;4.15;;;13.70;99.90;;;;;;5067363;28;20044;-70
2022/11/01 05:09:58;;;;;;;27.25;3.70;;;13.80;99.90;;;;;;5067550;28;20058;-69
2022/11/01 05:12:24;;;;;;;23.20;4.32;;;13.70;99.90;;;;;;5063590;28;20032;-70
2022/11/01 05:14:49;;;;;;;25.63;4.57;;;13.80;99.90;;;;;;5049310;28;20033;-69
2022/11/01 05:17:15;;;;;;;35.58;5.82;;;13.70;99.90;;;;;;5064257;28;20033;-71
2022/11/01 05:19:40;;;;;;;28.17;4.53;;;13.60;99.90;;;;;;5060464;28;20037;-71
2022/11/01 05:22:06;;;;;;;26.10;4.40;;;13.40;99.90;;;;;;5040137;28;20037;-70
2022/11/01 05:24:32;;;;;;;21.17;3.75;;;13.40;99.90;;;;;;5060343;28;23445;-69
2022/11/01 05:26:59;;;;;;;30.45;4.78;;;13.30;99.90;;;;;;5058851;28;20123;-70
2022/11/01 05:29:25;;;;;;;28.45;5.03;;;13.30;99.90;;;;;;5059106;28;20538;-71
2022/11/01 05:31:51;;;;;;;20.20;3.42;;;13.30;99.90;;;;;;5059652;28;20036;-71
2022/11/01 05:34:16;;;;;;;28.55;4.22;;;13.40;99.90;;;;;;5059094;28;20028;-70
2022/11/01 05:36:42;;;;;;;23.25;3.75;;;13.40;99.90;;;;;;5042744;28;20098;-70
2022/11/01 05:39:08;;;;;;;24.40;3.33;;;13.50;99.90;;;;;;5055756;28;20040;-71
2022/11/01 05:41:33;;;;;;;25.08;3.55;;;13.40;99.90;;;;;;5058865;28;20017;-71
2022/11/01 05:43:59;;;;;;;26.90;4.20;;;13.40;99.90;;;;;;5060640;28;20040;-70
2022/11/01 05:46:24;;;;;;;27.70;3.65;;;13.40;99.90;;;;;;5060868;28;20062;-70
2022/11/01 05:48:50;;;;;;;27.98;4.95;;;13.40;99.90;;;;;;5061453;28;20069;-70
2022/11/01 05:51:16;;;;;;;26.05;4.45;;;13.40;99.90;;;;;;5060762;28;20048;-70
2022/11/01 05:53:41;;;;;;;29.85;5.65;;;13.40;99.90;;;;;;5060942;28;20389;-70
2022/11/01 05:56:07;;;;;;;25.70;3.60;;;13.50;99.90;;;;;;5042950;28;20036;-71
2022/11/01 05:58:33;;;;;;;27.60;4.40;;;13.50;99.90;;;;;;5059838;28;20037;-70
2022/11/01 06:01:04;;;;;;;23.98;4.43;;;13.60;99.90;;;;;;5043031;28;20048;-71
2022/11/01 06:03:30;;;;;;;22.65;3.88;;;13.70;99.90;;;;;;5041961;28;20132;-71
2022/11/01 06:05:56;;;;;;;27.58;4.55;;;13.80;99.90;;;;;;5057042;28;20028;-71
2022/11/01 06:08:23;;;;;;;25.17;4.00;;;13.90;99.90;;;;;;5041132;28;20039;-71
2022/11/01 06:10:48;;;;;;;26.55;4.93;;;13.90;99.90;;;;;;5063442;28;20029;-70
2022/11/01 06:13:14;;;;;;;29.15;4.97;;;13.90;99.90;;;;;;5061674;28;20560;-70
2022/11/01 06:15:40;;;;;;;25.88;4.50;;;14.00;99.90;;;;;;5058745;28;20128;-70
2022/11/01 06:18:06;;;;;;;27.38;5.90;;;14.00;99.90;;;;;;5051136;28;20033;-69
2022/11/01 06:20:33;;;;;;;29.13;4.97;;;14.10;99.90;;;;;;5053800;28;20028;-70
2022/11/01 06:22:59;;;;;;;27.88;4.63;;;14.10;99.90;;;;;;5056987;28;20148;-70
2022/11/01 06:25:26;;;;;;;31.35;4.13;;;14.10;99.90;;;;;;5053841;28;20047;-70
2022/11/01 06:27:53;;;;;;;27.00;4.07;;;14.00;99.90;;;;;;5060472;28;20040;-70
2022/11/01 06:30:19;;;;;;;29.55;4.70;;;14.10;99.90;;;;;;5057993;28;20087;-71
2022/11/01 06:32:44;;;;;;;31.52;4.97;;;14.20;99.90;;;;;;5065412;28;20040;-70
2022/11/01 06:35:10;;;;;;;28.45;4.55;;;14.20;99.90;;;;;;5066500;28;20044;-70
2022/11/01 06:37:37;;;;;;;27.40;4.20;;;14.20;99.90;;;;;;5053771;28;20447;-70
2022/11/01 06:40:03;;;;;;;26.80;4.72;;;14.30;99.90;;;;;;5061571;28;20114;-70
2022/11/01 06:42:29;;;;;;;27.67;4.70;;;14.20;99.90;;;;;;5065561;28;20060;-70
2022/11/01 06:44:54;;;;;;;25.83;4.30;;;14.20;99.90;;;;;;5066637;28;20059;-71
2022/11/01 06:47:20;;;;;;;23.58;3.60;;;14.20;99.90;;;;;;5058778;28;20032;-70
2022/11/01 06:49:45;;;;;;;32.08;5.03;;;14.30;99.90;;;;;;5062898;28;20101;-70
2022/11/01 06:52:11;;;;;;;27.42;4.32;;;14.30;99.90;;;;;;5069739;28;20036;-71
2022/11/01 06:54:36;;;;;;;26.48;4.18;;;14.30;99.90;;;;;;5078815;28;20047;-70
2022/11/01 06:57:02;;;;;;;24.65;3.50;;;14.20;99.90;;;;;;5081844;28;20031;-70
2022/11/01 06:59:28;;;;;;;22.13;3.47;;;14.30;99.90;;;;;;5074045;28;20124;-71
2022/11/01 07:01:53;;;;;;;27.92;4.07;;;14.30;99.90;;;;;;5077742;28;20115;-70
2022/11/01 07:04:20;;;;;;;24.02;3.92;;;14.30;99.90;;;;;;5072737;28;20024;-70
2022/11/01 07:06:46;;;;;;;26.85;3.40;;;14.20;99.90;;;;;;5060217;28;20066;-71
2022/11/01 07:09:12;;;;;;;19.40;3.72;;;14.20;99.90;;;;;;5077164;28;21693;-70
2022/11/01 07:11:38;;;;;;;24.67;3.53;;;14.10;99.90;;;;;;5056517;28;20091;-70
2022/11/01 07:14:04;;;;;;;27.30;4.18;;;14.10;99.90;;;;;;5076757;28;20109;-70
2022/11/01 07:16:30;;;;;;;22.45;3.53;;;13.90;99.90;;;;;;5079868;28;20040;-72
2022/11/01 07:18:56;;;;;;;27.58;4.40;;;13.90;99.90;;;;;;5056619;28;20734;-71
2022/11/01 07:21:22;;;;;;;23.85;3.67;;;13.90;99.90;;;;;;5081954;28;20027;-70
2022/11/01 07:23:48;;;;;;;20.65;3.85;;;13.90;99.90;;;;;;5078218;28;20032;-70
2022/11/01 07:26:14;;;;;;;24.75;4.63;;;13.90;99.90;;;;;;5078866;28;20102;-70
2022/11/01 07:28:40;;;;;;;25.05;3.65;;;14.00;99.90;;;;;;5057093;28;20040;-70
2022/11/01 07:31:06;;;;;;;25.40;4.22;;;14.00;99.90;;;;;;5063169;28;20035;-70
2022/11/01 07:33:31;;;;;;;21.33;3.38;;;14.10;99.90;;;;;;5061088;28;20047;-70
2022/11/01 07:35:57;;;;;;;23.73;3.72;;;14.10;99.90;;;;;;5074170;28;20085;-70
2022/11/01 07:38:22;;;;;;;27.35;3.67;;;14.10;99.90;;;;;;5078664;28;20035;-70
2022/11/01 07:40:48;;;;;;;22.27;4.20;;;14.20;99.90;;;;;;5083322;28;20670;-70
2022/11/01 07:43:16;;;;;;;21.63;3.10;;;14.30;99.90;;;;;;5077585;28;20043;-71
2022/11/01 07:45:42;;;;;;;22.95;3.38;;;14.30;99.90;;;;;;5061198;28;20564;-71
2022/11/01 07:48:11;;;;;;;27.20;3.75;;;14.30;99.90;;;;;;5082658;28;20024;-70
2022/11/01 07:50:38;;;;;;;20.90;3.80;;;14.40;99.90;;;;;;5078344;28;20917;-70
2022/11/01 07:53:12;;;;;;;27.65;3.70;;;14.40;99.90;;;;;;5076940;28;20036;-70
2022/11/01 07:55:38;;;;;;;19.30;3.22;;;14.40;99.90;;;;;;5082844;28;20039;-71
2022/11/01 07:58:05;;;;;;;22.38;3.63;;;14.40;99.90;;;;;;5092944;28;20027;-70
2022/11/01 08:00:30;;;;;;;23.13;4.10;;;14.50;99.90;;;;;;5062532;28;20032;-70
2022/11/01 08:03:05;;;;;;;20.95;3.53;;;14.50;99.90;;;;;;5079178;28;20038;-71
2022/11/01 08:05:31;;;;;;;27.38;3.65;;;14.60;99.90;;;;;;5080215;28;20647;-70
2022/11/01 08:07:57;;;;;;;24.13;4.00;;;14.60;99.90;;;;;;5080824;28;20107;-70
2022/11/01 08:10:23;;;;;;;17.40;3.35;;;14.60;99.90;;;;;;5082597;28;20032;-71
2022/11/01 08:12:49;;;;;;;22.92;3.38;;;14.60;99.90;;;;;;5084777;28;20502;-70
2022/11/01 08:15:15;;;;;;;24.00;3.47;;;14.70;99.90;;;;;;5082055;28;20039;-71
2022/11/01 08:17:40;;;;;;;22.13;2.97;;;14.90;99.90;;;;;;5079034;28;20043;-71
2022/11/01 08:20:07;;;;;;;21.23;3.58;;;14.90;99.90;;;;;;5064464;28;20070;-67
2022/11/01 08:22:32;;;;;;;18.35;3.13;;;15.00;99.90;;;;;;5084011;28;20032;-69
2022/11/01 08:24:58;;;;;;;21.60;3.15;;;15.00;99.90;;;;;;5081801;28;20085;-70
2022/11/01 08:27:24;;;;;;;24.92;3.97;;;15.00;99.90;;;;;;5078829;28;20097;-70
2022/11/01 08:29:50;;;;;;;22.40;3.58;;;14.90;99.90;;;;;;5085002;28;20043;-70
2022/11/01 08:32:20;;;;;;;26.67;4.53;;;14.90;99.90;;;;;;5060142;28;20032;-68
2022/11/01 08:34:46;;;;;;;21.90;2.70;;;14.80;99.90;;;;;;5081200;28;20058;-70
2022/11/01 08:37:12;;;;;;;25.50;3.85;;;14.80;99.90;;;;;;5081740;28;20026;-72
2022/11/01 08:39:38;;;;;;;23.40;3.70;;;14.80;99.90;;;;;;5079725;28;20032;-70
2022/11/01 08:42:04;;;;;;;27.30;3.92;;;14.80;99.90;;;;;;5062541;28;20028;-70
2022/11/01 08:44:31;;;;;;;25.15;4.43;;;14.90;99.90;;;;;;5062756;28;20028;-70
2022/11/01 08:46:59;;;;;;;22.60;3.80;;;14.90;99.90;;;;;;5082022;28;20295;-71
2022/11/01 08:49:25;;;;;;;22.25;3.75;;;15.00;99.90;;;;;;5081973;28;20024;-71
2022/11/01 08:51:51;;;;;;;21.15;3.72;;;15.00;99.90;;;;;;5084757;28;20032;-70
2022/11/01 08:54:17;;;;;;;24.30;4.43;;;15.00;99.90;;;;;;5081535;28;20042;-70
2022/11/01 08:56:42;;;;;;;24.65;3.40;;;15.00;99.90;;;;;;5082975;28;20036;-70
2022/11/01 08:59:08;;;;;;;21.98;3.65;;;15.00;99.90;;;;;;5066488;28;20020;-70
2022/11/01 09:01:34;;;;;;;24.50;4.25;;;14.90;99.90;;;;;;5081937;28;20402;-70
2022/11/01 09:04:00;;;;;;;23.30;3.67;;;14.80;99.90;;;;;;5069013;28;20028;-70
2022/11/01 09:06:26;;;;;;;24.33;3.78;;;14.70;99.90;;;;;;5081508;28;20153;-69
2022/11/01 09:08:52;;;;;;;22.92;3.65;;;14.60;99.90;;;;;;5081375;28;20055;-69
2022/11/01 09:11:20;;;;;;;27.52;4.32;;;14.50;99.90;;;;;;5079498;28;20028;-70
2022/11/01 09:13:46;;;;;;;25.80;4.65;;;14.50;99.90;;;;;;5078687;28;20086;-70
2022/11/01 09:16:11;;;;;;;30.80;5.32;;;14.50;99.90;;;;;;5077948;28;20029;-70
2022/11/01 09:18:37;;;;;;;24.85;3.80;;;14.50;99.90;;;;;;5077215;28;20045;-70
2022/11/01 09:21:03;;;;;;;23.33;4.03;;;14.50;99.90;;;;;;5065067;28;20028;-70
2022/11/01 09:23:29;;;;;;;28.92;4.40;;;14.50;99.90;;;;;;5079083;28;20043;-70
2022/11/01 09:26:06;;;;;;;24.30;3.58;;;14.60;99.90;;;;;;5080859;28;20060;-70
2022/11/01 09:28:32;;;;;;;20.40;3.63;;;14.60;99.90;;;;;;5070711;28;20039;-70
2022/11/01 09:31:09;;;;;;;27.33;4.55;;;14.60;99.90;;;;;;5078451;28;20035;-68
2022/11/01 09:33:35;;;;;;;22.45;3.95;;;14.60;99.90;;;;;;5061191;28;20044;-69
2022/11/01 09:36:01;;;;;;;23.58;3.80;;;14.60;99.90;;;;;;5084675;28;20031;-71
2022/11/01 09:38:27;;;;;;;19.38;3.63;;;14.50;99.90;;;;;;5074746;28;20082;-69
2022/11/01 09:40:59;;;;;;;26.38;3.88;;;14.50;99.90;;;;;;5078043;28;20040;-70
2022/11/01 09:43:27;;;;;;;25.98;4.10;;;14.70;99.90;;;;;;5070131;28;20032;-70
2022/11/01 09:45:57;;;;;;;26.92;3.47;;;14.80;99.90;;;;;;5083266;28;20024;-69
2022/11/01 09:48:26;;;;;;;22.52;3.67;;;14.80;99.90;;;;;;5080424;28;20455;-68
2022/11/01 09:50:52;;;;;;;25.52;3.97;;;14.90;99.90;;;;;;5076092;28;20469;-70
2022/11/01 09:53:22;;;;;;;25.65;4.15;;;14.90;99.90;;;;;;5063137;28;20040;-69
2022/11/01 09:56:08;;;;;;;26.25;4.45;;;15.00;99.90;;;;;;5084060;28;20035;-70
2022/11/01 09:58:55;;;;;;;22.75;3.83;;;15.20;99.90;;;;;;5082298;28;20028;-71
2022/11/01 10:01:45;;;;;;;26.55;4.20;;;15.30;99.90;;;;;;5054052;28;20035;-70
2022/11/01 10:04:19;;;;;;;25.33;4.60;;;15.30;99.90;;;;;;5080065;28;20031;-70
2022/11/01 10:07:17;;;;;;;23.35;3.08;;;15.30;99.90;;;;;;5073249;28;20035;-70
2022/11/01 10:09:54;;;;;;;24.33;3.70;;;15.30;99.90;;;;;;5059813;28;20033;-70
2022/11/01 10:13:03;;;;;;;21.17;4.55;;;15.20;99.90;;;;;;5073600;28;20036;-69
2022/11/01 10:15:55;;;;;;;28.33;3.92;;;15.10;99.90;;;;;;5079058;28;20387;-70
2022/11/01 10:18:27;;;;;;;23.77;3.78;;;15.00;99.90;;;;;;5076942;28;20038;-70
2022/11/01 10:20:55;;;;;;;23.70;3.90;;;15.00;99.90;;;;;;5078649;28;20036;-69
2022/11/01 10:23:32;;;;;;;20.63;3.90;;;14.80;99.90;;;;;;5071129;28;20036;-69
2022/11/01 10:25:58;;;;;;;28.83;3.45;;;14.70;99.90;;;;;;5080703;28;20467;-70
2022/11/01 10:29:01;;;;;;;21.13;3.60;;;14.70;99.90;;;;;;5077612;28;20036;-69
2022/11/01 10:31:28;;;;;;;29.20;4.50;;;14.70;99.90;;;;;;5047326;28;20058;-70
2022/11/01 10:34:01;;;;;;;27.08;3.55;;;14.70;99.90;;;;;;5063079;28;20029;-71
2022/11/01 10:36:36;;;;;;;22.35;4.03;;;14.80;99.90;;;;;;5082960;28;20047;-70
2022/11/01 10:39:24;;;;;;;23.33;4.15;;;14.80;99.90;;;;;;5073016;28;20079;-72
2022/11/01 10:41:51;;;;;;;23.08;3.85;;;14.80;99.90;;;;;;5079025;28;20035;-71
2022/11/01 10:44:30;;;;;;;27.08;4.65;;;15.00;99.90;;;;;;5068291;28;20038;-68
2022/11/01 10:46:58;;;;;;;24.88;4.35;;;15.00;99.90;;;;;;5072987;28;20389;-68
2022/11/01 10:49:30;;;;;;;32.30;4.95;;;15.20;99.90;;;;;;5069755;28;20549;-70
2022/11/01 10:52:01;;;;;;;25.30;3.75;;;15.40;99.90;;;;;;5074357;28;20753;-71
2022/11/01 10:54:29;;;;;;;24.55;4.05;;;15.60;99.90;;;;;;5080397;28;20131;-68
2022/11/01 10:57:00;;;;;;;23.88;4.13;;;15.60;99.90;;;;;;5078927;28;20483;-69
2022/11/01 10:59:40;;;;;;;28.25;4.68;;;15.50;99.90;;;;;;5075895;28;20028;-70
2022/11/01 11:02:15;;;;;;;23.58;4.03;;;15.60;99.90;;;;;;5086209;28;20061;-70
2022/11/01 11:04:40;;;;;;;26.45;4.13;;;15.90;99.90;;;;;;5068473;28;20482;-70
2022/11/01 11:07:17;;;;;;;22.95;3.92;;;15.90;99.90;;;;;;5086264;28;20513;-71
2022/11/01 11:09:42;;;;;;;25.38;3.70;;;15.90;99.90;;;;;;5087090;28;20036;-69
2022/11/01 11:12:14;;;;;;;26.75;3.95;;;16.00;99.90;;;;;;5087365;28;20028;-70
2022/11/01 11:14:41;;;;;;;28.83;4.68;;;16.20;99.90;;;;;;5086393;28;20036;-71
2022/11/01 11:17:19;;;;;;;15.68;3.00;;;16.40;99.90;;;;;;5086688;28;20513;-70
2022/11/01 11:19:47;;;;;;;21.02;3.50;;;16.40;99.90;;;;;;5068636;28;20052;-70
2022/11/01 11:22:13;;;;;;;23.77;3.88;;;16.40;99.90;;;;;;5087544;28;20120;-70
2022/11/01 11:24:42;;;;;;;26.80;3.83;;;16.40;99.90;;;;;;5087741;28;20512;-70
2022/11/01 11:27:29;;;;;;;23.13;3.73;;;16.40;99.90;;;;;;5068977;28;20394;-72
2022/11/01 11:30:04;;;;;;;24.88;4.05;;;16.30;99.90;;;;;;5070635;28;20272;-70
2022/11/01 11:32:46;;;;;;;25.52;4.80;;;16.10;99.90;;;;;;5060235;28;20024;-70
2022/11/01 11:35:18;;;;;;;26.55;3.60;;;15.90;99.90;;;;;;5090763;28;20038;-69
2022/11/01 11:38:05;;;;;;;19.35;3.70;;;15.70;99.90;;;;;;5075942;28;20071;-68
2022/11/01 11:40:39;;;;;;;24.50;3.75;;;15.50;99.90;;;;;;5082449;28;20054;-71
2022/11/01 11:43:29;;;;;;;20.33;3.55;;;15.40;99.90;;;;;;5077691;28;20522;-70
2022/11/01 11:46:20;;;;;;;21.20;3.80;;;15.30;99.90;;;;;;5072949;28;20020;-69
2022/11/01 11:48:52;;;;;;;16.40;3.08;;;15.10;99.90;;;;;;5078457;28;20036;-70
2022/11/01 11:51:19;;;;;;;21.95;3.17;;;14.50;99.90;;;;;;5083553;28;20442;-70
2022/11/01 11:54:08;;;;;;;16.00;2.55;;;14.00;99.90;;;;;;5083689;28;20122;-71
2022/11/01 11:56:34;;;;;;;18.23;3.15;;;13.50;99.90;;;;;;5082311;28;20028;-70
2022/11/01 11:59:08;;;;;;;19.88;3.38;;;13.40;99.90;;;;;;5082606;28;20038;-71
2022/11/01 12:01:34;;;;;;;22.52;3.40;;;13.40;99.90;;;;;;5082469;28;20024;-71
2022/11/01 12:04:15;;;;;;;27.65;3.80;;;13.50;99.90;;;;;;5089589;28;20043;-71
2022/11/01 12:06:42;;;;;;;34.00;3.95;;;13.60;99.90;;;;;;5089647;28;20024;-71
2022/11/01 12:09:39;;;;;;;30.00;5.10;;;13.80;99.90;;;;;;5089664;28;20052;-71
2022/11/01 12:12:26;;;;;;;33.42;4.13;;;14.00;99.90;;;;;;5089980;28;20077;-72
2022/11/01 12:14:53;;;;;;;30.83;4.70;;;14.00;99.90;;;;;;5072173;28;20070;-72
2022/11/01 12:17:23;;;;;;;26.13;4.45;;;14.10;99.90;;;;;;5090117;28;20035;-72
2022/11/01 12:19:51;;;;;;;30.92;4.90;;;14.20;99.90;;;;;;5072001;28;20036;-72
2022/11/01 12:22:18;;;;;;;28.83;4.70;;;14.20;99.90;;;;;;5072136;28;20088;-71
2022/11/01 12:24:48;;;;;;;29.90;4.32;;;14.10;99.90;;;;;;5089832;28;20035;-72
2022/11/01 12:27:19;;;;;;;26.52;4.22;;;14.10;99.90;;;;;;5089838;28;20039;-71
2022/11/01 12:29:54;;;;;;;37.40;5.00;;;14.10;99.90;;;;;;5089983;28;20042;-70
2022/11/01 12:32:26;;;;;;;29.05;4.45;;;14.00;99.90;;;;;;5069716;28;20587;-70
2022/11/01 12:34:55;;;;;;;25.25;4.55;;;14.00;99.90;;;;;;5051260;28;20036;-70
2022/11/01 12:37:30;;;;;;;27.08;4.70;;;14.10;99.90;;;;;;5051345;28;20107;-71
2022/11/01 12:40:19;;;;;;;34.65;5.93;;;14.20;99.90;;;;;;5088070;28;20054;-70
2022/11/01 12:42:50;;;;;;;29.20;4.80;;;14.30;99.90;;;;;;5080219;28;20040;-71
2022/11/01 12:45:48;;;;;;;30.30;4.10;;;14.20;99.90;;;;;;5071980;28;20043;-71
2022/11/01 12:48:54;;;;;;;30.65;5.53;;;14.00;99.90;;;;;;5081292;28;20039;-70
2022/11/01 12:51:29;;;;;;;31.75;4.68;;;13.80;99.90;;;;;;5080950;28;20425;-72
2022/11/01 12:54:04;;;;;;;19.95;3.38;;;13.60;99.90;;;;;;5080490;28;20033;-72
2022/11/01 12:56:30;;;;;;;19.42;2.70;;;13.30;99.90;;;;;;5081243;28;20032;-71
2022/11/01 12:58:56;;;;;;;14.43;2.38;;;12.80;99.90;;;;;;5080233;28;20036;-71
2022/11/01 13:01:52;;;;;;;16.90;3.22;;;12.50;99.90;;;;;;5064399;28;20358;-72
2022/11/01 13:04:30;;;;;;;22.20;4.03;;;12.50;99.90;;;;;;5079569;28;20039;-72
2022/11/01 13:07:38;;;;;;;25.05;4.07;;;12.60;99.90;;;;;;5064949;28;20028;-72
2022/11/01 13:10:10;;;;;;;32.78;3.83;;;12.80;99.90;;;;;;5081622;28;20111;-70
2022/11/01 13:12:35;;;;;;;26.60;4.78;;;12.90;99.90;;;;;;5081595;28;20144;-71
2022/11/01 13:15:10;;;;;;;31.58;4.32;;;13.10;99.90;;;;;;5079002;28;20042;-71
2022/11/01 13:17:44;;;;;;;29.25;4.50;;;13.30;99.90;;;;;;5077363;28;20081;-72
2022/11/01 13:20:42;;;;;;;27.83;4.32;;;13.50;99.90;;;;;;5081596;28;20048;-71
2022/11/01 13:23:34;;;;;;;26.83;4.38;;;13.50;99.90;;;;;;5056242;28;20067;-71
2022/11/01 13:26:16;;;;;;;27.48;4.30;;;13.60;99.90;;;;;;5080292;28;20028;-71
2022/11/01 13:29:05;;;;;;;21.52;3.85;;;13.70;99.90;;;;;;5065509;28;20063;-70
2022/11/01 13:32:08;;;;;;;22.75;4.53;;;13.70;99.90;;;;;;5079950;28;20088;-72
2022/11/01 13:35:03;;;;;;;8.75;1.55;;;13.70;99.90;;;;;;5079695;28;20036;-70
2022/11/01 13:37:48;;;;;;;12.02;2.17;;;13.30;99.90;;;;;;5079518;28;20086;-70
2022/11/01 13:40:19;;;;;;;14.30;2.00;;;12.30;99.90;;;;;;5075441;28;20033;-70
2022/11/01 13:42:56;;;;;;;15.85;2.15;;;11.80;99.90;;;;;;5080947;28;20156;-71
2022/11/01 13:45:47;;;;;;;22.17;2.90;;;11.70;99.90;;;;;;5059667;28;20039;-69
2022/11/01 13:48:46;;;;;;;23.17;3.55;;;11.70;99.90;;;;;;5077476;28;20477;-71
2022/11/01 13:51:24;;;;;;;20.85;2.90;;;11.80;99.90;;;;;;5073963;28;20036;-72
2022/11/01 13:53:58;;;;;;;12.52;2.08;;;11.70;99.90;;;;;;5057323;28;20040;-71
2022/11/01 13:56:38;;;;;;;20.50;2.88;;;11.70;99.90;;;;;;5074348;28;20039;-72
2022/11/01 13:59:43;;;;;;;17.17;3.22;;;11.60;99.90;;;;;;5075157;28;20048;-72
2022/11/01 14:02:24;;;;;;;12.77;2.55;;;11.50;99.90;;;;;;5082414;28;20089;-71
2022/11/01 14:05:01;;;;;;;17.73;2.67;;;11.50;99.90;;;;;;5059984;28;20541;-71
2022/11/01 14:07:44;;;;;;;16.35;2.40;;;11.60;99.90;;;;;;5063925;28;20039;-71
2022/11/01 14:10:21;;;;;;;19.45;2.35;;;11.60;99.90;;;;;;5077058;28;20277;-72
2022/11/01 14:12:55;;;;;;;14.85;2.20;;;11.70;99.90;;;;;;5073242;28;20032;-71
2022/11/01 14:15:26;;;;;;;20.50;2.58;;;11.60;99.90;;;;;;5080805;28;20047;-70
2022/11/01 14:17:52;;;;;;;17.55;2.72;;;11.60;99.90;;;;;;5081840;28;20059;-70
2022/11/01 14:20:27;;;;;;;12.27;2.28;;;11.60;99.90;;;;;;5087710;28;20055;-72
2022/11/01 14:22:54;;;;;;;15.43;2.50;;;11.60;99.90;;;;;;5069317;28;20032;-71
2022/11/01 14:25:20;;;;;;;21.38;2.50;;;11.70;99.90;;;;;;5068839;28;20035;-70
2022/11/01 14:27:48;;;;;;;21.38;2.70;;;11.60;99.90;;;;;;5087153;28;20028;-70
2022/11/01 14:30:22;;;;;;;11.95;1.92;;;11.60;99.90;;;;;;5087308;28;20028;-70
2022/11/01 14:32:57;;;;;;;10.88;1.92;;;11.60;99.90;;;;;;5087389;28;20078;-72
2022/11/01 14:35:32;;;;;;;10.00;1.55;;;11.50;99.90;;;;;;5088167;28;20077;-72
2022/11/01 14:38:13;;;;;;;13.98;2.20;;;11.40;99.90;;;;;;5087931;28;20080;-72
2022/11/01 14:40:48;;;;;;;12.48;2.10;;;11.40;99.90;;;;;;5069375;28;20039;-73
2022/11/01 14:43:48;;;;;;;12.18;1.88;;;11.40;99.90;;;;;;5087559;28;20024;-72
2022/11/01 14:46:22;;;;;;;16.25;1.75;;;11.50;99.90;;;;;;5073344;28;20043;-73
2022/11/01 14:49:05;;;;;;;14.90;2.58;;;11.70;99.90;;;;;;5081323;28;20032;-72
2022/11/01 14:51:39;;;;;;;20.92;3.45;;;11.80;99.90;;;;;;5078992;28;20389;-74
2022/11/01 14:54:33;;;;;;;24.80;2.95;;;12.10;99.90;;;;;;5060516;28;20035;-72
2022/11/01 14:56:59;;;;;;;23.98;3.38;;;12.30;99.90;;;;;;5078923;28;20031;-72
2022/11/01 14:59:31;;;;;;;26.95;3.47;;;12.40;99.90;;;;;;5077895;28;20030;-73
2022/11/01 15:02:05;;;;;;;24.75;3.03;;;12.40;99.90;;;;;;5063992;28;20370;-71
2022/11/01 15:04:44;;;;;;;24.13;3.30;;;12.30;99.90;;;;;;5078259;28;20035;-71
2022/11/01 15:07:29;;;;;;;16.65;2.20;;;12.20;99.90;;;;;;5079347;28;20077;-70
2022/11/01 15:09:56;;;;;;;18.85;2.63;;;12.10;99.90;;;;;;5065276;28;20042;-70
2022/11/01 15:12:24;;;;;;;16.60;2.17;;;12.10;99.90;;;;;;5086405;28;20024;-72
2022/11/01 15:14:50;;;;;;;22.45;2.38;;;12.00;99.90;;;;;;5087287;28;20081;-71
2022/11/01 15:17:25;;;;;;;14.55;2.95;;;12.00;99.90;;;;;;5086546;28;20035;-71
2022/11/01 15:19:52;;;;;;;18.30;3.03;;;12.10;99.90;;;;;;5087295;28;20082;-71
2022/11/01 15:22:20;;;;;;;18.30;2.45;;;12.10;99.90;;;;;;5068717;28;20043;-71
2022/11/01 15:24:50;;;;;;;19.10;3.15;;;12.20;99.90;;;;;;5087242;28;20620;-71
2022/11/01 15:27:19;;;;;;;19.63;3.55;;;12.30;99.90;;;;;;5067931;28;20032;-71
2022/11/01 15:29:46;;;;;;;17.48;2.58;;;12.40;99.90;;;;;;5061045;28;20060;-70
2022/11/01 15:32:32;;;;;;;25.20;3.28;;;12.50;99.90;;;;;;5083811;28;20071;-70
2022/11/01 15:35:02;;;;;;;26.30;3.83;;;12.50;99.90;;;;;;5082073;28;20035;-70
2022/11/01 15:37:31;;;;;;;27.55;3.65;;;12.60;99.90;;;;;;5084947;28;20039;-70
2022/11/01 15:40:14;;;;;;;25.57;4.30;;;12.70;99.90;;;;;;5079198;28;20111;-70
2022/11/01 15:42:45;;;;;;;32.40;4.78;;;12.70;99.90;;;;;;5079842;28;20107;-71
2022/11/01 15:45:19;;;;;;;28.58;4.65;;;12.80;99.90;;;;;;5075729;28;20115;-70
2022/11/01 15:47:45;;;;;;;24.48;3.65;;;12.90;99.90;;;;;;5077870;28;20551;-70
2022/11/01 15:50:12;;;;;;;24.30;3.67;;;12.90;99.90;;;;;;5081154;28;20047;-70
2022/11/01 15:52:38;;;;;;;25.52;4.00;;;13.10;99.90;;;;;;5083037;28;20043;-71
2022/11/01 15:55:31;;;;;;;20.88;3.28;;;13.20;99.90;;;;;;5083414;28;20390;-70
2022/11/01 15:58:20;;;;;;;25.75;4.10;;;13.10;99.90;;;;;;5084948;28;20082;-70
2022/11/01 16:00:54;;;;;;;27.95;3.97;;;13.10;99.90;;;;;;5083235;28;20042;-69
2022/11/01 16:03:54;;;;;;;24.88;4.10;;;13.10;99.90;;;;;;5083378;28;20032;-70
2022/11/01 16:06:21;;;;;;;29.65;4.30;;;13.20;99.90;;;;;;5074982;28;20071;-69
2022/11/01 16:08:56;;;;;;;24.83;3.85;;;13.10;99.90;;;;;;5063916;28;20059;-70
2022/11/01 16:11:24;;;;;;;22.48;3.63;;;13.10;99.90;;;;;;5078638;28;20019;-73
2022/11/01 16:14:12;;;;;;;23.60;4.22;;;13.10;99.90;;;;;;5072829;28;20038;-70
2022/11/01 16:17:00;;;;;;;29.00;4.38;;;13.10;99.90;;;;;;5077414;28;20048;-70
2022/11/01 16:19:43;;;;;;;18.45;3.33;;;13.00;99.90;;;;;;5078043;28;20043;-70
2022/11/01 16:22:40;;;;;;;25.38;4.57;;;13.00;99.90;;;;;;5064214;28;20032;-71
2022/11/01 16:25:06;;;;;;;21.77;3.95;;;13.00;99.90;;;;;;5077869;28;20107;-70
2022/11/01 16:27:34;;;;;;;24.70;3.17;;;12.90;99.90;;;;;;5081410;28;20076;-70
2022/11/01 16:30:07;;;;;;;21.55;3.67;;;12.90;99.90;;;;;;5082026;28;20032;-70
2022/11/01 16:32:34;;;;;;;20.23;3.28;;;12.80;99.90;;;;;;5080236;28;20032;-70
2022/11/01 16:35:29;;;;;;;20.70;3.40;;;12.80;99.90;;;;;;5076805;28;20126;-70
2022/11/01 16:37:55;;;;;;;21.40;3.03;;;12.70;99.90;;;;;;5083371;28;20118;-70
2022/11/01 16:40:23;;;;;;;19.17;3.40;;;12.70;99.90;;;;;;5085771;28;20400;-70
2022/11/01 16:42:49;;;;;;;21.27;3.10;;;12.70;99.90;;;;;;5061036;28;20028;-71
2022/11/01 16:45:15;;;;;;;17.60;3.30;;;12.60;99.90;;;;;;5078123;28;20768;-71
2022/11/01 16:47:40;;;;;;;23.83;3.65;;;12.80;99.90;;;;;;5080898;28;20042;-70
2022/11/01 16:50:15;;;;;;;17.00;3.00;;;12.80;99.90;;;;;;5079246;28;20142;-70
2022/11/01 16:52:41;;;;;;;21.25;3.35;;;12.80;99.90;;;;;;5079864;28;20032;-71
2022/11/01 16:55:07;;;;;;;25.02;3.50;;;12.80;99.90;;;;;;5081203;28;20043;-70
2022/11/01 16:57:32;;;;;;;21.73;3.65;;;12.90;99.90;;;;;;5081631;28;20713;-72